Time;durP1;ratioP1;P1;durP2;ratioP2;P2;SDS_P1;SDS_P2;PMS_P1;PMS_P2;Temp;Humidity;BMP_temperature;BMP_pressure;BME280_temperature;BME280_humidity;BME280_pressure;Samples;Min_cycle;Max_cycle;Signal;HPM_P1;HPM_P2
2023/07/07 00:01:04;;;;;;;2.87;2.50;;;;;;;13.02;100.00;102401.16;4973000;28;20204;-71
2023/07/07 00:03:30;;;;;;;5.90;3.13;;;;;;;13.53;100.00;102533.59;4970317;28;20702;-71
2023/07/07 00:05:56;;;;;;;3.80;3.40;;;;;;;13.32;100.00;102499.19;4972163;28;20444;-71
2023/07/07 00:08:21;;;;;;;8.10;3.57;;;;;;;13.50;100.00;102532.09;4987866;28;20536;-71
2023/07/07 00:10:47;;;;;;;6.80;3.60;;;;;;;14.11;100.00;102606.91;4971922;28;20564;-70
2023/07/07 00:13:14;;;;;;;4.70;3.37;;;;;;;13.43;100.00;102509.56;4973976;28;20204;-71
2023/07/07 00:15:44;;;;;;;5.17;3.50;;;;;;;13.54;100.00;102560.38;4971013;28;20210;-71
2023/07/07 00:18:11;;;;;;;4.17;3.33;;;;;;;13.70;100.00;102513.59;4978706;28;20473;-71
2023/07/07 00:20:36;;;;;;;5.87;3.10;;;;;;;14.43;100.00;102613.91;4973647;28;20442;-71
2023/07/07 00:23:02;;;;;;;5.47;3.37;;;;;;;14.17;100.00;102596.22;4971811;28;20440;-71
2023/07/07 00:25:27;;;;;;;4.80;3.20;;;;;;;14.30;100.00;102611.00;4973105;28;20185;-71
2023/07/07 00:27:53;;;;;;;4.93;3.73;;;;;;;13.68;100.00;102521.06;4973922;28;20233;-71
2023/07/07 00:30:18;;;;;;;6.53;3.17;;;;;;;13.59;100.00;102522.09;4973672;28;20198;-71
2023/07/07 00:32:44;;;;;;;4.43;3.47;;;;;;;14.32;100.00;102650.28;4975403;28;20186;-71
2023/07/07 00:35:09;;;;;;;4.53;3.50;;;;;;;14.41;100.00;102638.41;4975495;28;20260;-71
2023/07/07 00:37:36;;;;;;;4.20;3.27;;;;;;;12.74;100.00;102411.53;4977463;28;20207;-70
2023/07/07 00:40:03;;;;;;;5.23;3.40;;;;;;;14.07;100.00;102625.31;4981329;28;20205;-71
2023/07/07 00:42:30;;;;;;;4.63;2.80;;;;;;;13.04;100.00;102461.03;4997394;28;20453;-71
2023/07/07 00:45:05;;;;;;;3.70;3.00;;;;;;;14.02;100.00;102641.19;4980639;28;20837;-71
2023/07/07 00:47:31;;;;;;;3.80;3.10;;;;;;;13.60;100.00;102547.19;4978583;28;20196;-71
2023/07/07 00:49:57;;;;;;;5.03;3.30;;;;;;;13.38;100.00;102532.66;4986418;28;20508;-71
2023/07/07 00:52:23;;;;;;;6.60;3.30;;;;;;;13.50;100.00;102536.63;4978715;28;20910;-71
2023/07/07 00:54:48;;;;;;;5.40;2.93;;;;;;;13.13;100.00;102527.34;4976221;28;20718;-71
2023/07/07 00:57:14;;;;;;;4.70;2.83;;;;;;;13.69;100.00;102592.81;4975649;28;20204;-71
2023/07/07 00:59:42;;;;;;;8.30;3.40;;;;;;;13.21;100.00;102556.94;4979524;28;20209;-71
2023/07/07 01:02:24;;;;;;;6.07;3.50;;;;;;;13.99;100.00;102653.16;4973539;28;20285;-71
2023/07/07 01:04:53;;;;;;;3.90;3.00;;;;;;;14.13;100.00;102654.28;4973130;28;20452;-71
2023/07/07 01:07:30;;;;;;;4.43;3.37;;;;;;;13.16;100.00;102540.47;4976576;28;20528;-71
2023/07/07 01:09:55;;;;;;;5.23;3.30;;;;;;;13.90;100.00;102629.13;4972422;28;20816;-70
2023/07/07 01:12:21;;;;;;;6.37;3.43;;;;;;;13.02;100.00;102525.88;4975853;28;20532;-70
2023/07/07 01:14:49;;;;;;;5.43;3.30;;;;;;;13.91;100.00;102622.69;4989885;28;20200;-71
2023/07/07 01:17:53;;;;;;;4.53;3.73;;;;;;;13.95;100.00;102638.38;4973615;28;20269;-71
2023/07/07 01:20:31;;;;;;;4.70;3.53;;;;;;;13.85;100.00;102632.34;4897889;29;21355;-71
2023/07/07 01:23:24;;;;;;;6.50;3.00;;;;;;;13.97;100.00;102624.69;4898758;29;20455;-71
2023/07/07 01:26:14;;;;;;;6.67;3.90;;;;;;;13.12;100.00;102504.13;4950628;28;20441;-71
2023/07/07 01:28:53;;;;;;;4.13;3.73;;;;;;;13.91;100.00;102625.41;4976310;28;20464;-71
2023/07/07 01:31:40;;;;;;;5.33;3.53;;;;;;;12.94;100.00;102468.50;4972074;28;20496;-71
2023/07/07 01:34:08;;;;;;;7.37;3.60;;;;;;;13.34;100.00;102507.94;4989695;28;20672;-71
2023/07/07 01:36:34;;;;;;;4.70;3.53;;;;;;;13.77;100.00;102581.16;4973575;28;20556;-71
2023/07/07 01:38:59;;;;;;;6.53;4.50;;;;;;;13.79;100.00;102603.38;4975711;28;20473;-71
2023/07/07 01:41:40;;;;;;;4.93;4.50;;;;;;;13.86;100.00;102584.66;4975492;28;20206;-71
2023/07/07 01:44:27;;;;;;;7.30;4.23;;;;;;;12.94;100.00;102460.44;4976238;28;20646;-71
2023/07/07 01:47:03;;;;;;;9.80;5.47;;;;;;;13.05;100.00;102468.13;4976261;28;20460;-71
2023/07/07 01:49:34;;;;;;;5.63;5.03;;;;;;;13.52;100.00;102511.19;4973602;28;20945;-71
2023/07/07 01:52:12;;;;;;;7.90;4.80;;;;;;;12.92;100.00;102419.38;5969029;23;20435;-71
2023/07/07 01:54:44;;;;;;;6.67;5.20;;;;;;;10.84;100.00;102092.28;5001544;28;20533;-72
2023/07/07 01:57:12;;;;;;;7.43;5.10;;;;;;;10.58;100.00;102053.06;5013576;28;20841;-72
2023/07/07 01:59:42;;;;;;;8.20;5.73;;;;;;;11.45;100.00;102238.53;5008731;28;20473;-72
2023/07/07 02:02:07;;;;;;;8.20;6.10;;;;;;;10.52;100.00;102104.72;5013159;28;20495;-71
2023/07/07 02:04:33;;;;;;;11.43;5.67;;;;;;;11.83;100.00;102254.09;5011324;28;20446;-71
2023/07/07 02:06:59;;;;;;;9.47;6.30;;;;;;;10.66;100.00;102080.91;5011905;28;20177;-72
2023/07/07 02:09:24;;;;;;;8.50;6.20;;;;;;;11.38;100.00;102202.63;5015069;28;20346;-72
2023/07/07 02:11:50;;;;;;;7.73;5.83;;;;;;;10.66;100.00;102062.13;5009420;28;20189;-72
2023/07/07 02:14:15;;;;;;;7.83;6.10;;;;;;;12.63;100.00;102434.28;5011582;28;20215;-72
2023/07/07 02:16:41;;;;;;;7.20;6.47;;;;;;;12.62;100.00;102365.31;5010122;28;20219;-71
2023/07/07 02:19:06;;;;;;;8.07;5.87;;;;;;;13.58;100.00;102536.59;5015807;28;20596;-71
2023/07/07 02:21:31;;;;;;;7.50;5.87;;;;;;;13.43;100.00;102500.63;5008892;28;20184;-72
2023/07/07 02:23:57;;;;;;;9.27;6.30;;;;;;;13.60;100.00;102539.97;5012670;28;20314;-72
2023/07/07 02:26:22;;;;;;;7.83;6.40;;;;;;;13.36;100.00;102492.41;5016452;28;21234;-71
2023/07/07 02:28:48;;;;;;;9.83;7.07;;;;;;;12.80;100.00;102435.91;5021081;28;20177;-71
2023/07/07 02:31:14;;;;;;;8.07;7.27;;;;;;;13.43;100.00;102544.59;5021759;28;20192;-71
2023/07/07 02:33:39;;;;;;;8.17;7.40;;;;;;;12.64;100.00;102419.81;5012957;28;20376;-71
2023/07/07 02:36:07;;;;;;;9.00;6.63;;;;;;;13.67;100.00;102538.22;5013597;28;20647;-72
2023/07/07 02:38:35;;;;;;;8.50;6.83;;;;;;;13.62;100.00;102547.88;5012049;28;20197;-72
2023/07/07 02:41:01;;;;;;;9.57;6.77;;;;;;;12.92;100.00;102433.66;5019698;28;20947;-73
2023/07/07 02:43:29;;;;;;;9.00;6.50;;;;;;;13.27;100.00;102488.06;5013038;28;21328;-71
2023/07/07 02:45:54;;;;;;;13.30;7.30;;;;;;;13.64;100.00;102589.81;5015636;28;20837;-71
2023/07/07 02:48:21;;;;;;;7.90;6.80;;;;;;;13.65;100.00;102569.91;5013266;28;20505;-71
2023/07/07 02:51:02;;;;;;;9.33;7.20;;;;;;;13.52;100.00;102573.19;5015451;28;20196;-72
2023/07/07 02:53:30;;;;;;;8.73;6.70;;;;;;;12.61;100.00;102453.31;5011100;28;20561;-71
2023/07/07 02:55:56;;;;;;;11.10;7.40;;;;;;;13.70;100.00;102590.97;5012616;28;20545;-71
2023/07/07 02:58:22;;;;;;;7.67;6.80;;;;;;;13.54;100.00;102591.91;5011709;28;20952;-72
2023/07/07 03:00:48;;;;;;;8.53;7.60;;;;;;;12.65;100.00;102459.19;5018894;28;21077;-72
2023/07/07 03:03:14;;;;;;;10.23;7.53;;;;;;;13.37;100.00;102556.09;5012541;28;20467;-72
2023/07/07 03:05:41;;;;;;;10.70;7.80;;;;;;;12.52;100.00;102462.41;5011806;28;20435;-72
2023/07/07 03:08:06;;;;;;;9.30;7.27;;;;;;;13.22;100.00;102552.41;5020242;28;20445;-72
2023/07/07 03:10:34;;;;;;;11.03;8.13;;;;;;;12.50;100.00;102428.59;5014666;28;20924;-71
2023/07/07 03:12:59;;;;;;;13.30;7.73;;;;;;;13.24;100.00;102529.66;5011971;28;20312;-72
2023/07/07 03:15:38;;;;;;;8.70;7.80;;;;;;;13.46;100.00;102579.28;5018622;28;20633;-72
2023/07/07 03:18:10;;;;;;;9.53;7.30;;;;;;;13.64;100.00;102575.50;5009461;28;20188;-71
2023/07/07 03:20:37;;;;;;;9.30;7.20;;;;;;;12.77;100.00;102454.28;5016629;28;20522;-71
2023/07/07 03:23:03;;;;;;;9.37;7.60;;;;;;;13.17;100.00;102544.00;5015637;28;20443;-72
2023/07/07 03:25:29;;;;;;;10.50;8.43;;;;;;;12.56;100.00;102454.84;5018926;28;20942;-72
2023/07/07 03:27:56;;;;;;;9.37;7.70;;;;;;;13.39;100.00;102564.81;5012313;28;20430;-72
2023/07/07 03:30:21;;;;;;;10.47;8.50;;;;;;;13.24;100.00;102574.63;5013971;28;20438;-72
2023/07/07 03:32:47;;;;;;;8.87;7.87;;;;;;;13.34;100.00;102569.91;5010805;28;20838;-72
2023/07/07 03:35:12;;;;;;;9.60;8.60;;;;;;;13.32;100.00;102580.03;5010543;28;20211;-72
2023/07/07 03:37:38;;;;;;;9.90;8.03;;;;;;;12.68;100.00;102463.38;5007015;28;20743;-72
2023/07/07 03:40:06;;;;;;;12.10;8.60;;;;;;;13.26;100.00;102570.78;5009211;28;20193;-71
2023/07/07 03:42:32;;;;;;;15.90;8.00;;;;;;;13.45;100.00;102563.28;5016150;28;20463;-72
2023/07/07 03:44:58;;;;;;;11.50;8.23;;;;;;;13.36;100.00;102543.59;5011209;28;20434;-72
2023/07/07 03:47:23;;;;;;;11.87;8.70;;;;;;;13.52;100.00;102585.84;5011378;28;20478;-72
2023/07/07 03:49:49;;;;;;;15.70;9.20;;;;;;;13.65;100.00;102571.78;5011388;28;20444;-71
2023/07/07 03:52:15;;;;;;;11.83;9.60;;;;;;;13.38;100.00;102562.31;5009667;28;20691;-72
2023/07/07 03:54:41;;;;;;;10.50;9.40;;;;;;;12.17;100.00;102347.97;5009422;28;20498;-72
2023/07/07 03:57:08;;;;;;;10.80;9.30;;;;;;;13.72;100.00;102584.38;5014207;28;20466;-72
2023/07/07 03:59:33;;;;;;;11.23;9.47;;;;;;;13.75;100.00;102592.13;5016775;28;20215;-72
2023/07/07 04:01:59;;;;;;;13.67;9.03;;;;;;;13.04;100.00;102490.69;5010237;28;20816;-73
2023/07/07 04:04:25;;;;;;;11.60;8.93;;;;;;;12.91;100.00;102483.16;5006793;28;20210;-72
2023/07/07 04:06:56;;;;;;;14.77;8.90;;;;;;;12.93;100.00;102474.91;5009013;28;20177;-72
2023/07/07 04:09:22;;;;;;;11.17;9.67;;;;;;;13.83;100.00;102598.47;5014184;28;20181;-72
2023/07/07 04:11:48;;;;;;;16.27;9.43;;;;;;;13.52;100.00;102605.53;5017306;28;20443;-72
2023/07/07 04:14:13;;;;;;;15.17;9.40;;;;;;;13.43;100.00;102563.47;5015245;28;20463;-72
2023/07/07 04:16:38;;;;;;;12.63;10.13;;;;;;;13.08;100.00;102498.25;5015032;28;20834;-72
2023/07/07 04:19:04;;;;;;;14.63;9.63;;;;;;;13.83;100.00;102610.13;5028563;28;20227;-72
2023/07/07 04:21:30;;;;;;;14.07;10.13;;;;;;;13.02;100.00;102463.09;5014714;28;20192;-72
2023/07/07 04:23:57;;;;;;;15.00;9.63;;;;;;;12.88;100.00;102470.88;5013028;28;20228;-72
2023/07/07 04:26:24;;;;;;;15.00;10.53;;;;;;;13.95;100.00;102621.34;5018477;28;20431;-71
2023/07/07 04:28:51;;;;;;;13.87;10.57;;;;;;;13.93;100.00;102643.09;5018769;28;20469;-71
2023/07/07 04:31:18;;;;;;;12.07;10.40;;;;;;;13.98;100.00;102639.88;5019397;28;21066;-71
2023/07/07 04:33:43;;;;;;;13.57;11.03;;;;;;;14.08;100.00;102634.25;5025158;28;20458;-72
2023/07/07 04:36:13;;;;;;;13.20;9.63;;;;;;;13.87;100.00;102611.44;5017172;28;20452;-72
2023/07/07 04:38:38;;;;;;;12.60;10.17;;;;;;;13.77;100.00;102595.50;5024746;28;20650;-71
2023/07/07 04:41:12;;;;;;;15.73;10.60;;;;;;;13.99;100.00;102604.59;5026201;28;20459;-71
2023/07/07 04:43:41;;;;;;;11.27;9.30;;;;;;;14.23;100.00;102644.09;5017898;28;20240;-72
2023/07/07 04:46:08;;;;;;;12.70;10.20;;;;;;;14.16;100.00;102623.41;5016048;28;20478;-71
2023/07/07 04:48:34;;;;;;;12.17;9.27;;;;;;;14.33;100.00;102643.03;5023371;28;20428;-72
2023/07/07 04:51:01;;;;;;;11.63;8.77;;;;;;;14.24;100.00;102628.75;5018971;28;20480;-72
2023/07/07 04:53:28;;;;;;;12.07;9.53;;;;;;;14.21;100.00;102607.50;5015421;28;20296;-72
2023/07/07 04:55:55;;;;;;;13.07;9.57;;;;;;;14.22;100.00;102637.00;5008650;28;20466;-72
2023/07/07 04:58:21;;;;;;;16.00;10.00;;;;;;;14.35;100.00;102655.31;5021710;28;20498;-73
2023/07/07 05:00:46;;;;;;;12.87;10.43;;;;;;;13.56;100.00;102525.97;5012879;28;20436;-71
2023/07/07 05:03:12;;;;;;;15.00;10.37;;;;;;;14.54;100.00;102672.91;5018986;28;20680;-72
2023/07/07 05:05:37;;;;;;;13.30;10.40;;;;;;;13.99;100.00;102595.69;5011947;28;20191;-72
2023/07/07 05:08:03;;;;;;;17.33;10.77;;;;;;;14.51;100.00;102667.84;5013467;28;20193;-70
2023/07/07 05:10:28;;;;;;;13.60;10.10;;;;;;;14.12;100.00;102592.41;5011183;28;20552;-71
2023/07/07 05:12:54;;;;;;;14.80;10.13;;;;;;;14.63;100.00;102689.91;5014665;28;20685;-72
2023/07/07 05:15:19;;;;;;;18.20;10.57;;;;;;;14.58;100.00;102663.47;5016066;28;20700;-71
2023/07/07 05:17:44;;;;;;;14.70;9.67;;;;;;;14.86;100.00;102688.00;5017186;28;20204;-72
2023/07/07 05:20:10;;;;;;;14.00;9.90;;;;;;;14.16;100.00;102574.81;5016768;28;20180;-71
2023/07/07 05:22:36;;;;;;;16.90;11.17;;;;;;;14.94;100.00;102692.53;5013667;28;20305;-71
2023/07/07 05:25:02;;;;;;;19.97;11.37;;;;;;;14.61;100.00;102652.28;5007951;28;20737;-71
2023/07/07 05:27:27;;;;;;;16.20;11.20;;;;;;;13.77;100.00;102503.78;5013073;28;20180;-71
2023/07/07 05:29:53;;;;;;;16.30;10.00;;;;;;;14.86;100.00;102668.28;5017263;28;20189;-71
2023/07/07 05:32:18;;;;;;;14.03;9.30;;;;;;;15.19;100.00;102720.16;5015837;28;20331;-71
2023/07/07 05:34:43;;;;;;;14.33;9.70;;;;;;;14.15;100.00;102556.97;5011481;28;20232;-71
2023/07/07 05:37:09;;;;;;;16.43;10.00;;;;;;;15.37;100.00;102744.16;5008102;28;21778;-71
2023/07/07 05:39:34;;;;;;;15.13;9.77;;;;;;;15.44;100.00;102752.34;5005066;28;21153;-72
2023/07/07 05:42:00;;;;;;;15.87;9.20;;;;;;;14.46;100.00;102590.13;5013833;28;20287;-71
2023/07/07 05:44:25;;;;;;;14.10;8.83;;;;;;;15.53;100.00;102762.91;5014776;28;20637;-72
2023/07/07 05:46:50;;;;;;;13.10;10.33;;;;;;;15.27;100.00;102724.63;5030556;28;20184;-70
2023/07/07 05:49:16;;;;;;;14.90;10.20;;;;;;;15.45;100.00;102760.31;5013579;28;20180;-71
2023/07/07 05:51:41;;;;;;;14.60;10.50;;;;;;;15.67;100.00;102799.09;5015867;28;20549;-70
2023/07/07 05:54:08;;;;;;;14.07;9.57;;;;;;;14.91;100.00;102673.97;5010705;28;20220;-71
2023/07/07 05:56:34;;;;;;;14.23;9.87;;;;;;;15.73;100.00;102784.88;5011623;28;20239;-71
2023/07/07 05:59:02;;;;;;;13.03;9.30;;;;;;;15.78;100.00;102801.38;5017401;28;20464;-72
2023/07/07 06:01:28;;;;;;;19.90;10.30;;;;;;;15.82;100.00;102818.94;5012839;28;20466;-72
2023/07/07 06:03:53;;;;;;;11.67;9.10;;;;;;;14.99;100.00;102684.72;5006120;28;20456;-71
2023/07/07 06:06:19;;;;;;;13.87;9.40;;;;;;;15.89;100.00;102797.41;5009650;28;21010;-72
2023/07/07 06:08:44;;;;;;;13.70;10.50;;;;;;;16.07;100.00;102810.53;5008087;28;20196;-72
2023/07/07 06:11:10;;;;;;;24.27;11.17;;;;;;;16.11;100.00;102827.25;5007976;28;20214;-72
2023/07/07 06:13:35;;;;;;;18.57;10.43;;;;;;;16.21;100.00;102823.22;5009476;28;20208;-71
2023/07/07 06:16:01;;;;;;;19.33;10.43;;;;;;;15.45;100.00;102710.75;5016332;28;20193;-72
2023/07/07 06:18:26;;;;;;;15.13;9.40;;;;;;;16.38;100.00;102837.41;5018914;28;20280;-71
2023/07/07 06:20:54;;;;;;;15.23;8.67;;;;;;;15.18;100.00;102639.25;5012871;28;20185;-72
2023/07/07 06:23:20;;;;;;;13.73;9.20;;;;;;;16.38;100.00;102850.97;5013631;28;20212;-72
2023/07/07 06:25:49;;;;;;;17.07;10.13;;;;;;;16.32;100.00;102848.16;5011130;28;20453;-72
2023/07/07 06:28:16;;;;;;;15.63;9.30;;;;;;;15.81;100.00;102790.19;5016644;28;20439;-71
2023/07/07 06:30:42;;;;;;;10.53;8.90;;;;;;;16.63;100.00;102880.41;5011183;28;20530;-72
2023/07/07 06:33:07;;;;;;;12.50;8.80;;;;;;;16.53;100.00;102879.91;5013700;28;20455;-72
2023/07/07 06:35:33;;;;;;;15.57;10.10;;;;;;;15.88;100.00;102781.31;5013196;28;20219;-71
2023/07/07 06:37:58;;;;;;;13.60;9.67;;;;;;;16.15;100.00;102815.03;5008758;28;20191;-72
2023/07/07 06:40:24;;;;;;;17.97;9.30;;;;;;;16.71;100.00;102899.28;5009286;28;20672;-71
2023/07/07 06:42:55;;;;;;;12.53;9.40;;;;;;;16.01;100.00;102811.28;5014310;28;20571;-72
2023/07/07 06:45:21;;;;;;;16.80;8.33;;;;;;;17.04;100.00;102928.69;5028008;28;20226;-72
2023/07/07 06:47:46;;;;;;;12.27;9.20;;;;;;;16.48;100.00;102846.06;5011932;28;20453;-71
2023/07/07 06:50:21;;;;;;;14.30;9.27;;;;;;;17.10;100.00;102919.81;5011426;28;21031;-71
2023/07/07 06:52:46;;;;;;;12.90;8.53;;;;;;;17.16;100.00;102933.44;5012990;28;20291;-71
2023/07/07 06:55:12;;;;;;;16.10;10.10;;;;;;;16.97;100.00;102893.38;5013295;28;20456;-71
2023/07/07 06:57:37;;;;;;;15.63;9.80;;;;;;;16.78;100.00;102840.63;5008638;28;20204;-71
2023/07/07 07:00:03;;;;;;;16.83;8.97;;;;;;;17.03;100.00;102864.66;5012020;28;20191;-74
2023/07/07 07:02:28;;;;;;;16.60;9.87;;;;;;;16.81;100.00;102836.72;5010225;28;20318;-71
2023/07/07 07:04:54;;;;;;;12.80;8.80;;;;;;;17.06;100.00;102850.72;5013489;28;20189;-72
2023/07/07 07:07:19;;;;;;;19.37;9.67;;;;;;;17.56;100.00;102941.13;5010600;28;20608;-72
2023/07/07 07:09:45;;;;;;;11.10;8.77;;;;;;;17.65;100.00;102948.13;5008749;28;20604;-72
2023/07/07 07:12:10;;;;;;;11.03;9.00;;;;;;;17.66;100.00;102946.25;5011816;28;20189;-72
2023/07/07 07:14:35;;;;;;;14.27;8.93;;;;;;;17.16;100.00;102868.34;5011159;28;20200;-72
2023/07/07 07:17:01;;;;;;;11.10;8.00;;;;;;;17.70;100.00;102942.91;5013860;28;20207;-72
2023/07/07 07:19:26;;;;;;;10.67;7.53;;;;;;;17.63;100.00;102936.59;5012832;28;20204;-72
2023/07/07 07:21:52;;;;;;;12.43;8.00;;;;;;;17.83;100.00;102931.38;5012400;28;20192;-72
2023/07/07 07:24:19;;;;;;;10.83;7.60;;;;;;;17.14;100.00;102847.88;5012692;28;20664;-73
2023/07/07 07:26:44;;;;;;;10.10;8.20;;;;;;;17.10;100.00;102781.53;5016202;28;21617;-72
2023/07/07 07:29:14;;;;;;;15.50;7.67;;;;;;;17.79;100.00;102927.38;5015349;28;21005;-72
2023/07/07 07:31:40;;;;;;;9.83;7.60;;;;;;;18.13;100.00;103004.50;5017684;28;20279;-72
2023/07/07 07:34:23;;;;;;;9.67;7.73;;;;;;;18.26;100.00;103019.03;5015989;28;20880;-72
2023/07/07 07:36:50;;;;;;;15.53;7.43;;;;;;;18.23;100.00;103008.56;5014934;28;20262;-71
2023/07/07 07:39:16;;;;;;;9.03;6.40;;;;;;;18.47;100.00;103017.31;5008170;28;20479;-71
2023/07/07 07:41:44;;;;;;;9.17;6.77;;;;;;;18.49;100.00;103039.69;5010163;28;20561;-71
2023/07/07 07:44:10;;;;;;;10.43;6.43;;;;;;;18.80;100.00;103061.03;5013715;28;20289;-72
2023/07/07 07:46:35;;;;;;;8.83;5.60;;;;;;;18.47;100.00;103042.59;5014244;28;20443;-72
2023/07/07 07:49:01;;;;;;;16.27;5.63;;;;;;;18.86;100.00;103079.28;5022534;28;20193;-72
2023/07/07 07:51:26;;;;;;;8.33;6.97;;;;;;;18.69;100.00;103067.84;5012331;28;20184;-72
2023/07/07 07:53:51;;;;;;;12.17;6.07;;;;;;;18.03;100.00;102958.69;5010088;28;20588;-72
2023/07/07 07:56:17;;;;;;;8.23;5.73;;;;;;;18.88;100.00;103084.50;5012088;28;20211;-72
2023/07/07 07:58:42;;;;;;;11.23;6.40;;;;;;;18.98;100.00;103120.38;5012024;28;20192;-73
2023/07/07 08:01:09;;;;;;;10.17;6.17;;;;;;;18.15;100.00;102976.13;5014847;28;20193;-73
2023/07/07 08:03:35;;;;;;;9.67;5.67;;;;;;;19.24;100.00;103099.75;5013170;28;20205;-73
2023/07/07 08:06:00;;;;;;;8.53;6.20;;;;;;;19.16;100.00;103095.34;5013404;28;20998;-71
2023/07/07 08:08:25;;;;;;;7.70;6.20;;;;;;;18.31;100.00;102977.69;5013615;28;20265;-73
2023/07/07 08:10:51;;;;;;;7.50;4.93;;;;;;;19.01;100.00;103086.50;5015812;28;20181;-72
2023/07/07 08:13:16;;;;;;;7.73;5.80;;;;;;;18.95;100.00;103083.53;5013726;28;20219;-72
2023/07/07 08:15:42;;;;;;;10.33;6.23;;;;;;;17.89;100.00;102927.88;5013841;28;20786;-72
2023/07/07 08:18:08;;;;;;;9.53;5.60;;;;;;;19.06;100.00;103094.88;5012881;28;20208;-72
2023/07/07 08:20:33;;;;;;;6.90;5.00;;;;;;;18.70;100.00;103015.16;5011677;28;20447;-72
2023/07/07 08:22:59;;;;;;;10.93;5.33;;;;;;;18.16;100.00;102944.38;5012318;28;20200;-73
2023/07/07 08:25:27;;;;;;;9.67;5.20;;;;;;;19.33;100.00;103123.06;5010834;28;20280;-72
2023/07/07 08:27:53;;;;;;;8.57;4.03;;;;;;;19.54;100.00;103146.59;5011965;28;20220;-72
2023/07/07 08:30:19;;;;;;;6.80;4.50;;;;;;;19.44;100.00;103149.72;5008563;28;20439;-73
2023/07/07 08:32:45;;;;;;;6.80;4.60;;;;;;;19.22;100.00;103126.34;5015428;28;20463;-73
2023/07/07 08:35:11;;;;;;;5.93;4.30;;;;;;;19.36;100.00;103149.88;5015694;28;20451;-72
2023/07/07 08:37:37;;;;;;;6.70;4.33;;;;;;;19.75;100.00;103208.28;5011947;28;20193;-72
2023/07/07 08:40:04;;;;;;;10.13;4.20;;;;;;;19.78;100.00;103213.34;5015618;28;21081;-71
2023/07/07 08:42:34;;;;;;;7.97;4.60;;;;;;;19.75;100.00;103219.19;5012149;28;20665;-71
2023/07/07 08:45:04;;;;;;;5.97;4.23;;;;;;;19.24;100.00;103133.28;5012060;28;20839;-72
2023/07/07 08:47:53;;;;;;;6.47;3.47;;;;;;;19.99;100.00;103236.88;5009125;28;20501;-71
2023/07/07 08:50:37;;;;;;;11.40;3.47;;;;;;;19.23;100.00;103147.91;5010873;28;20534;-71
2023/07/07 08:53:39;;;;;;;8.40;3.70;;;;;;;20.01;100.00;103235.63;5017983;28;20909;-72
2023/07/07 08:56:20;;;;;;;5.87;3.30;;;;;;;19.95;100.00;103239.16;5013860;28;20469;-71
2023/07/07 08:59:21;;;;;;;5.87;3.50;;;;;;;20.17;100.00;103217.25;5014119;28;20443;-70
2023/07/07 09:02:06;;;;;;;8.40;3.17;;;;;;;19.54;100.00;103024.13;5004160;28;20453;-72
2023/07/07 09:04:40;;;;;;;6.93;3.00;;;;;;;20.29;100.00;103076.63;5014843;28;20471;-70
2023/07/07 09:07:43;;;;;;;5.43;2.33;;;;;;;20.27;100.00;102837.00;5014232;28;20439;-73
2023/07/07 09:10:17;;;;;;;6.83;3.20;;;;;;;20.37;100.00;102836.56;5013387;28;20943;-72
2023/07/07 09:13:03;;;;;;;4.70;2.63;;;;;;;20.58;100.00;102600.19;5014587;28;20541;-71
2023/07/07 09:15:35;;;;;;;9.17;2.83;;;;;;;19.58;100.00;102097.25;5012908;28;20459;-72
2023/07/07 09:18:11;;;;;;;5.97;2.77;;;;;;;19.63;100.00;102165.44;5017167;28;20523;-72
2023/07/07 09:20:38;;;;;;;4.23;2.17;;;;;;;19.65;100.00;102201.47;5014124;28;20446;-71
2023/07/07 09:23:11;;;;;;;4.90;2.27;;;;;;;20.50;100.00;102241.47;5008824;28;20586;-71
2023/07/07 09:25:44;;;;;;;7.00;2.60;;;;;;;19.41;100.00;102094.31;5027471;28;20510;-71
2023/07/07 09:28:12;;;;;;;4.90;2.10;;;;;;;20.02;100.00;102242.31;5013005;28;20979;-72
2023/07/07 09:30:53;;;;;;;3.90;2.43;;;;;;;20.23;100.00;102241.81;5031741;28;20448;-71
2023/07/07 09:33:21;;;;;;;5.37;2.20;;;;;;;20.22;100.00;102114.00;5012979;28;21230;-71
2023/07/07 09:36:08;;;;;;;3.60;2.07;;;;;;;19.90;100.00;102137.91;5016444;28;20470;-70
2023/07/07 09:38:51;;;;;;;3.00;1.93;;;;;;;20.32;100.00;102217.81;5014444;28;20442;-70
2023/07/07 09:41:58;;;;;;;6.10;2.80;;;;;;;20.29;100.00;102245.53;5016017;28;20448;-71
2023/07/07 09:44:41;;;;;;;5.10;2.30;;;;;;;20.67;100.00;102158.00;4993248;28;20439;-72
2023/07/07 09:47:18;;;;;;;3.60;2.07;;;;;;;20.73;100.00;102208.84;5009018;28;20475;-72
2023/07/07 09:49:54;;;;;;;3.70;2.30;;;;;;;20.76;100.00;102229.38;5022580;28;20454;-71
2023/07/07 09:52:44;;;;;;;5.20;2.50;;;;;;;21.16;100.00;102209.63;5022067;28;20469;-72
2023/07/07 09:55:26;;;;;;;5.07;2.10;;;;;;;20.86;100.00;102223.34;5012968;28;20457;-71
2023/07/07 09:58:10;;;;;;;3.80;2.33;;;;;;;20.83;100.00;102224.66;5017111;28;20444;-71
2023/07/07 10:00:38;;;;;;;7.40;2.87;;;;;;;20.34;100.00;102139.41;5015730;28;20475;-72
2023/07/07 10:03:33;;;;;;;5.13;1.90;;;;;;;20.24;100.00;102032.88;5014898;28;20513;-71
2023/07/07 10:06:06;;;;;;;4.40;2.50;;;;;;;19.91;100.00;102047.84;5014833;28;20978;-71
2023/07/07 10:08:32;;;;;;;5.40;2.50;;;;;;;19.23;100.00;102008.09;5013003;28;20522;-71
2023/07/07 10:11:09;;;;;;;5.00;2.50;;;;;;;20.83;100.00;102212.91;5014253;28;21039;-71
2023/07/07 10:13:35;;;;;;;5.90;2.53;;;;;;;20.32;100.00;102123.28;5015420;28;20734;-71
2023/07/07 10:16:05;;;;;;;3.10;2.10;;;;;;;20.16;100.00;102095.88;5024706;28;20544;-72
2023/07/07 10:18:32;;;;;;;4.40;2.20;;;;;;;20.42;100.00;102103.63;5017396;28;20276;-71
2023/07/07 10:21:02;;;;;;;6.10;2.60;;;;;;;20.87;100.00;102227.75;5031852;28;20432;-71
2023/07/07 10:23:29;;;;;;;3.03;1.90;;;;;;;20.11;100.00;102095.75;5016355;28;20514;-69
2023/07/07 10:25:54;;;;;;;7.63;2.30;;;;;;;21.01;100.00;102210.09;5021338;28;21562;-69
2023/07/07 10:28:21;;;;;;;3.43;2.10;;;;;;;21.67;100.00;102222.59;5014281;28;20455;-70
2023/07/07 10:30:48;;;;;;;5.90;2.53;;;;;;;21.59;100.00;102205.75;5018849;28;20498;-69
2023/07/07 10:33:17;;;;;;;4.87;2.50;;;;;;;20.79;100.00;102143.56;5011664;28;20982;-69
2023/07/07 10:35:43;;;;;;;3.10;2.10;;;;;;;21.04;100.00;102197.91;5013351;28;20964;-69
2023/07/07 10:38:10;;;;;;;3.17;2.13;;;;;;;20.32;100.00;102089.75;5016491;28;20455;-69
2023/07/07 10:40:36;;;;;;;6.10;2.20;;;;;;;21.03;100.00;102213.44;5019836;28;20239;-69
2023/07/07 10:43:03;;;;;;;5.00;2.10;;;;;;;20.30;100.00;102078.25;5011582;28;20490;-69
2023/07/07 10:45:29;;;;;;;4.30;1.90;;;;;;;20.58;100.00;102107.63;5018358;28;20455;-69
2023/07/07 10:47:55;;;;;;;4.53;2.43;;;;;;;21.25;100.00;102202.75;5010470;28;20852;-69
2023/07/07 10:50:25;;;;;;;6.33;2.90;;;;;;;21.20;100.00;102203.47;5012622;28;20204;-69
2023/07/07 10:53:09;;;;;;;4.10;2.10;;;;;;;20.93;100.00;102096.72;5019323;28;20281;-69
2023/07/07 10:55:54;;;;;;;5.30;2.53;;;;;;;20.88;100.00;102121.13;5016676;28;20837;-70
2023/07/07 10:58:28;;;;;;;3.83;2.07;;;;;;;21.41;100.00;102204.81;5009622;28;20951;-69
2023/07/07 11:01:12;;;;;;;4.07;2.20;;;;;;;21.41;100.00;102199.34;5014294;28;20474;-69
2023/07/07 11:03:57;;;;;;;5.50;2.47;;;;;;;20.14;100.00;102016.31;5011061;28;20466;-69
2023/07/07 11:06:34;;;;;;;6.93;2.83;;;;;;;21.91;100.00;102206.16;5011518;28;20435;-70
2023/07/07 11:09:18;;;;;;;4.90;2.50;;;;;;;21.94;100.00;102193.91;5010255;28;20583;-70
2023/07/07 11:12:12;;;;;;;5.60;2.23;;;;;;;20.59;100.00;102032.13;5026992;28;20535;-70
2023/07/07 11:15:01;;;;;;;5.27;2.77;;;;;;;21.85;100.00;102204.41;5010327;28;20440;-70
2023/07/07 11:17:50;;;;;;;3.27;2.00;;;;;;;22.07;100.00;102199.94;5009402;28;20482;-70
2023/07/07 11:20:27;;;;;;;11.83;2.27;;;;;;;21.77;100.00;102199.28;5012697;28;20443;-69
2023/07/07 11:23:07;;;;;;;3.93;2.40;;;;;;;21.33;100.00;102138.81;5012945;28;20549;-69